sensor_id;sensor_type;location;lat;lon;timestamp;P1;durP1;ratioP1;P2;durP2;ratioP2
7076;SDS011;3579;48.956;9.154;2023-05-17T00:01:56;1.20;;;1.10;;
7076;SDS011;3579;48.956;9.154;2023-05-17T00:04:22;1.20;;;1.10;;
7076;SDS011;3579;48.956;9.154;2023-05-17T00:06:48;0.90;;;0.90;;
7076;SDS011;3579;48.956;9.154;2023-05-17T00:09:14;1.20;;;0.90;;
7076;SDS011;3579;48.956;9.154;2023-05-17T00:11:40;1.40;;;1.20;;
7076;SDS011;3579;48.956;9.154;2023-05-17T00:14:06;0.90;;;0.90;;
7076;SDS011;3579;48.956;9.154;2023-05-17T00:16:32;1.10;;;1.00;;
7076;SDS011;3579;48.956;9.154;2023-05-17T00:18:58;1.40;;;1.00;;
7076;SDS011;3579;48.956;9.154;2023-05-17T00:21:24;1.13;;;1.03;;
7076;SDS011;3579;48.956;9.154;2023-05-17T00:23:50;1.10;;;0.83;;
7076;SDS011;3579;48.956;9.154;2023-05-17T00:26:16;1.10;;;1.00;;
7076;SDS011;3579;48.956;9.154;2023-05-17T00:28:42;0.97;;;0.97;;
7076;SDS011;3579;48.956;9.154;2023-05-17T00:31:08;1.10;;;1.00;;
7076;SDS011;3579;48.956;9.154;2023-05-17T00:33:34;1.00;;;0.90;;
7076;SDS011;3579;48.956;9.154;2023-05-17T00:36:00;1.20;;;1.10;;
7076;SDS011;3579;48.956;9.154;2023-05-17T00:38:26;0.97;;;0.97;;
7076;SDS011;3579;48.956;9.154;2023-05-17T00:40:52;1.10;;;1.00;;
7076;SDS011;3579;48.956;9.154;2023-05-17T00:43:18;1.00;;;0.90;;
7076;SDS011;3579;48.956;9.154;2023-05-17T00:45:44;1.00;;;0.90;;
7076;SDS011;3579;48.956;9.154;2023-05-17T00:48:13;0.93;;;0.93;;
7076;SDS011;3579;48.956;9.154;2023-05-17T00:50:39;1.10;;;1.00;;
7076;SDS011;3579;48.956;9.154;2023-05-17T00:53:06;1.00;;;1.00;;
7076;SDS011;3579;48.956;9.154;2023-05-17T00:55:32;1.17;;;1.07;;
7076;SDS011;3579;48.956;9.154;2023-05-17T00:57:58;0.90;;;0.90;;
7076;SDS011;3579;48.956;9.154;2023-05-17T01:00:25;1.10;;;1.00;;
7076;SDS011;3579;48.956;9.154;2023-05-17T01:02:51;1.17;;;1.00;;
7076;SDS011;3579;48.956;9.154;2023-05-17T01:05:17;1.17;;;1.07;;
7076;SDS011;3579;48.956;9.154;2023-05-17T01:07:43;0.97;;;0.90;;
7076;SDS011;3579;48.956;9.154;2023-05-17T01:10:09;1.10;;;1.00;;
7076;SDS011;3579;48.956;9.154;2023-05-17T01:12:49;1.10;;;1.00;;
7076;SDS011;3579;48.956;9.154;2023-05-17T01:15:30;1.13;;;1.03;;
7076;SDS011;3579;48.956;9.154;2023-05-17T01:18:20;1.03;;;0.80;;
7076;SDS011;3579;48.956;9.154;2023-05-17T01:20:55;1.30;;;0.97;;
7076;SDS011;3579;48.956;9.154;2023-05-17T01:23:39;1.03;;;0.93;;
7076;SDS011;3579;48.956;9.154;2023-05-17T01:26:09;1.10;;;1.00;;
7076;SDS011;3579;48.956;9.154;2023-05-17T01:28:40;1.07;;;1.00;;
7076;SDS011;3579;48.956;9.154;2023-05-17T01:31:10;1.20;;;1.10;;
7076;SDS011;3579;48.956;9.154;2023-05-17T01:33:37;1.17;;;0.90;;
7076;SDS011;3579;48.956;9.154;2023-05-17T01:36:04;1.20;;;1.00;;
7076;SDS011;3579;48.956;9.154;2023-05-17T01:38:31;0.97;;;0.90;;
7076;SDS011;3579;48.956;9.154;2023-05-17T01:44:02;1.00;;;1.00;;
7076;SDS011;3579;48.956;9.154;2023-05-17T01:46:37;1.13;;;1.03;;
7076;SDS011;3579;48.956;9.154;2023-05-17T01:49:07;1.10;;;1.00;;
7076;SDS011;3579;48.956;9.154;2023-05-17T01:51:56;1.03;;;1.00;;
7076;SDS011;3579;48.956;9.154;2023-05-17T01:54:23;1.60;;;1.20;;
7076;SDS011;3579;48.956;9.154;2023-05-17T01:56:57;1.10;;;1.00;;
7076;SDS011;3579;48.956;9.154;2023-05-17T01:59:23;1.07;;;1.00;;
7076;SDS011;3579;48.956;9.154;2023-05-17T02:01:54;1.17;;;1.00;;
7076;SDS011;3579;48.956;9.154;2023-05-17T02:04:28;1.10;;;1.00;;
7076;SDS011;3579;48.956;9.154;2023-05-17T02:06:55;1.10;;;1.00;;
7076;SDS011;3579;48.956;9.154;2023-05-17T02:09:21;0.90;;;0.90;;
7076;SDS011;3579;48.956;9.154;2023-05-17T02:11:47;1.10;;;1.00;;
7076;SDS011;3579;48.956;9.154;2023-05-17T02:14:13;0.87;;;0.80;;
7076;SDS011;3579;48.956;9.154;2023-05-17T02:16:39;0.80;;;0.80;;
7076;SDS011;3579;48.956;9.154;2023-05-17T02:19:05;1.10;;;1.00;;
7076;SDS011;3579;48.956;9.154;2023-05-17T02:21:33;1.00;;;0.90;;
7076;SDS011;3579;48.956;9.154;2023-05-17T02:24:00;0.97;;;0.93;;
7076;SDS011;3579;48.956;9.154;2023-05-17T02:26:26;1.27;;;1.03;;
7076;SDS011;3579;48.956;9.154;2023-05-17T02:28:52;1.10;;;1.00;;
7076;SDS011;3579;48.956;9.154;2023-05-17T02:31:18;1.00;;;0.90;;
7076;SDS011;3579;48.956;9.154;2023-05-17T02:33:45;0.97;;;0.87;;
7076;SDS011;3579;48.956;9.154;2023-05-17T02:36:11;1.03;;;0.93;;
7076;SDS011;3579;48.956;9.154;2023-05-17T02:38:37;1.10;;;1.00;;
7076;SDS011;3579;48.956;9.154;2023-05-17T02:41:03;1.10;;;1.00;;
7076;SDS011;3579;48.956;9.154;2023-05-17T02:43:30;1.20;;;1.10;;
7076;SDS011;3579;48.956;9.154;2023-05-17T02:45:56;0.90;;;0.90;;
7076;SDS011;3579;48.956;9.154;2023-05-17T02:48:22;1.00;;;0.90;;
7076;SDS011;3579;48.956;9.154;2023-05-17T02:50:48;1.33;;;1.00;;
7076;SDS011;3579;48.956;9.154;2023-05-17T02:53:14;1.33;;;1.00;;
7076;SDS011;3579;48.956;9.154;2023-05-17T02:55:39;1.10;;;1.00;;
7076;SDS011;3579;48.956;9.154;2023-05-17T02:58:05;0.80;;;0.80;;
7076;SDS011;3579;48.956;9.154;2023-05-17T03:00:31;1.10;;;1.00;;
7076;SDS011;3579;48.956;9.154;2023-05-17T03:02:57;1.33;;;0.90;;
7076;SDS011;3579;48.956;9.154;2023-05-17T03:05:23;1.10;;;1.00;;
7076;SDS011;3579;48.956;9.154;2023-05-17T03:07:50;0.83;;;0.83;;
7076;SDS011;3579;48.956;9.154;2023-05-17T03:10:16;1.00;;;0.90;;
7076;SDS011;3579;48.956;9.154;2023-05-17T03:12:42;0.80;;;0.80;;
7076;SDS011;3579;48.956;9.154;2023-05-17T03:15:08;1.00;;;0.90;;
7076;SDS011;3579;48.956;9.154;2023-05-17T03:17:34;1.10;;;1.00;;
7076;SDS011;3579;48.956;9.154;2023-05-17T03:20:01;0.90;;;0.90;;
7076;SDS011;3579;48.956;9.154;2023-05-17T03:22:27;1.20;;;1.10;;
7076;SDS011;3579;48.956;9.154;2023-05-17T03:24:53;0.90;;;0.90;;
7076;SDS011;3579;48.956;9.154;2023-05-17T03:27:19;0.80;;;0.80;;
7076;SDS011;3579;48.956;9.154;2023-05-17T03:29:45;0.80;;;0.80;;
7076;SDS011;3579;48.956;9.154;2023-05-17T03:32:10;1.00;;;1.00;;
7076;SDS011;3579;48.956;9.154;2023-05-17T03:34:37;1.10;;;1.00;;
7076;SDS011;3579;48.956;9.154;2023-05-17T03:37:03;0.80;;;0.80;;
7076;SDS011;3579;48.956;9.154;2023-05-17T03:39:29;1.00;;;0.90;;
7076;SDS011;3579;48.956;9.154;2023-05-17T03:41:55;0.80;;;0.80;;
7076;SDS011;3579;48.956;9.154;2023-05-17T03:44:21;1.10;;;0.97;;
7076;SDS011;3579;48.956;9.154;2023-05-17T03:46:47;1.10;;;1.00;;
7076;SDS011;3579;48.956;9.154;2023-05-17T03:49:13;0.97;;;0.90;;
7076;SDS011;3579;48.956;9.154;2023-05-17T03:51:39;1.10;;;1.00;;
7076;SDS011;3579;48.956;9.154;2023-05-17T03:54:05;0.90;;;0.90;;
7076;SDS011;3579;48.956;9.154;2023-05-17T03:56:31;2.10;;;0.80;;
7076;SDS011;3579;48.956;9.154;2023-05-17T03:58:57;1.00;;;0.90;;
7076;SDS011;3579;48.956;9.154;2023-05-17T04:01:24;1.03;;;1.00;;
7076;SDS011;3579;48.956;9.154;2023-05-17T04:03:50;1.00;;;0.87;;
7076;SDS011;3579;48.956;9.154;2023-05-17T04:06:16;0.90;;;0.90;;
7076;SDS011;3579;48.956;9.154;2023-05-17T04:08:42;1.10;;;1.00;;
7076;SDS011;3579;48.956;9.154;2023-05-17T04:11:08;1.00;;;0.90;;
7076;SDS011;3579;48.956;9.154;2023-05-17T04:13:35;0.90;;;0.90;;
7076;SDS011;3579;48.956;9.154;2023-05-17T04:16:04;0.80;;;0.80;;
7076;SDS011;3579;48.956;9.154;2023-05-17T04:18:33;1.07;;;1.00;;
7076;SDS011;3579;48.956;9.154;2023-05-17T04:21:00;1.00;;;0.90;;
7076;SDS011;3579;48.956;9.154;2023-05-17T04:23:28;0.90;;;0.90;;
7076;SDS011;3579;48.956;9.154;2023-05-17T04:25:54;0.90;;;0.90;;
7076;SDS011;3579;48.956;9.154;2023-05-17T04:28:22;0.90;;;0.90;;
7076;SDS011;3579;48.956;9.154;2023-05-17T04:30:49;0.90;;;0.90;;
7076;SDS011;3579;48.956;9.154;2023-05-17T04:33:15;0.90;;;0.90;;
7076;SDS011;3579;48.956;9.154;2023-05-17T04:35:41;0.90;;;0.90;;
7076;SDS011;3579;48.956;9.154;2023-05-17T04:38:07;0.90;;;0.90;;
7076;SDS011;3579;48.956;9.154;2023-05-17T04:40:36;1.10;;;1.00;;
7076;SDS011;3579;48.956;9.154;2023-05-17T04:43:02;1.07;;;0.97;;
7076;SDS011;3579;48.956;9.154;2023-05-17T04:45:28;0.90;;;0.90;;
7076;SDS011;3579;48.956;9.154;2023-05-17T04:47:54;0.90;;;0.90;;
7076;SDS011;3579;48.956;9.154;2023-05-17T04:50:20;0.83;;;0.83;;
7076;SDS011;3579;48.956;9.154;2023-05-17T04:52:46;1.10;;;1.00;;
7076;SDS011;3579;48.956;9.154;2023-05-17T04:55:12;0.73;;;0.73;;
7076;SDS011;3579;48.956;9.154;2023-05-17T04:57:38;1.00;;;0.83;;
7076;SDS011;3579;48.956;9.154;2023-05-17T05:00:05;0.90;;;0.90;;
7076;SDS011;3579;48.956;9.154;2023-05-17T05:02:33;1.30;;;0.97;;
7076;SDS011;3579;48.956;9.154;2023-05-17T05:04:59;1.20;;;1.10;;
7076;SDS011;3579;48.956;9.154;2023-05-17T05:07:25;0.80;;;0.80;;
7076;SDS011;3579;48.956;9.154;2023-05-17T05:09:51;0.90;;;0.90;;
7076;SDS011;3579;48.956;9.154;2023-05-17T05:12:17;1.00;;;1.00;;
7076;SDS011;3579;48.956;9.154;2023-05-17T05:14:43;0.90;;;0.90;;
7076;SDS011;3579;48.956;9.154;2023-05-17T05:17:09;0.90;;;0.90;;
7076;SDS011;3579;48.956;9.154;2023-05-17T05:19:35;1.10;;;1.00;;
7076;SDS011;3579;48.956;9.154;2023-05-17T05:22:01;0.80;;;0.80;;
7076;SDS011;3579;48.956;9.154;2023-05-17T05:24:27;0.90;;;0.90;;
7076;SDS011;3579;48.956;9.154;2023-05-17T05:26:53;0.97;;;0.97;;
7076;SDS011;3579;48.956;9.154;2023-05-17T05:29:19;0.90;;;0.90;;
7076;SDS011;3579;48.956;9.154;2023-05-17T05:31:45;0.80;;;0.80;;
7076;SDS011;3579;48.956;9.154;2023-05-17T05:34:11;0.80;;;0.80;;
7076;SDS011;3579;48.956;9.154;2023-05-17T05:36:38;0.80;;;0.80;;
7076;SDS011;3579;48.956;9.154;2023-05-17T05:39:04;0.90;;;0.90;;
7076;SDS011;3579;48.956;9.154;2023-05-17T05:41:30;0.80;;;0.80;;
7076;SDS011;3579;48.956;9.154;2023-05-17T05:43:56;1.30;;;1.17;;
7076;SDS011;3579;48.956;9.154;2023-05-17T05:46:22;0.90;;;0.90;;
7076;SDS011;3579;48.956;9.154;2023-05-17T05:48:48;0.80;;;0.80;;
7076;SDS011;3579;48.956;9.154;2023-05-17T05:51:14;0.80;;;0.80;;
7076;SDS011;3579;48.956;9.154;2023-05-17T05:53:40;0.80;;;0.80;;
7076;SDS011;3579;48.956;9.154;2023-05-17T05:56:06;1.00;;;0.90;;
7076;SDS011;3579;48.956;9.154;2023-05-17T05:58:32;0.80;;;0.80;;
7076;SDS011;3579;48.956;9.154;2023-05-17T06:00:58;0.80;;;0.80;;
7076;SDS011;3579;48.956;9.154;2023-05-17T06:03:24;0.87;;;0.87;;
7076;SDS011;3579;48.956;9.154;2023-05-17T06:05:50;1.00;;;0.90;;
7076;SDS011;3579;48.956;9.154;2023-05-17T06:08:16;1.13;;;1.00;;
7076;SDS011;3579;48.956;9.154;2023-05-17T06:10:42;0.90;;;0.90;;
7076;SDS011;3579;48.956;9.154;2023-05-17T06:13:08;0.83;;;0.80;;
7076;SDS011;3579;48.956;9.154;2023-05-17T06:15:35;1.10;;;1.00;;
7076;SDS011;3579;48.956;9.154;2023-05-17T06:18:01;1.00;;;0.90;;
7076;SDS011;3579;48.956;9.154;2023-05-17T06:20:27;0.90;;;0.90;;
7076;SDS011;3579;48.956;9.154;2023-05-17T06:22:53;0.93;;;0.90;;
7076;SDS011;3579;48.956;9.154;2023-05-17T06:25:19;0.90;;;0.90;;
7076;SDS011;3579;48.956;9.154;2023-05-17T06:27:45;0.80;;;0.80;;
7076;SDS011;3579;48.956;9.154;2023-05-17T06:30:12;0.90;;;0.90;;
7076;SDS011;3579;48.956;9.154;2023-05-17T06:32:38;0.93;;;0.90;;
7076;SDS011;3579;48.956;9.154;2023-05-17T06:35:04;0.90;;;0.90;;
7076;SDS011;3579;48.956;9.154;2023-05-17T06:37:31;0.90;;;0.90;;
7076;SDS011;3579;48.956;9.154;2023-05-17T06:40:00;1.10;;;1.00;;
7076;SDS011;3579;48.956;9.154;2023-05-17T06:42:31;1.10;;;1.00;;
7076;SDS011;3579;48.956;9.154;2023-05-17T06:44:59;0.87;;;0.87;;
7076;SDS011;3579;48.956;9.154;2023-05-17T06:47:25;1.20;;;0.90;;
7076;SDS011;3579;48.956;9.154;2023-05-17T06:49:51;1.53;;;1.00;;
7076;SDS011;3579;48.956;9.154;2023-05-17T06:52:17;1.23;;;0.97;;
7076;SDS011;3579;48.956;9.154;2023-05-17T06:54:43;1.00;;;1.00;;
7076;SDS011;3579;48.956;9.154;2023-05-17T06:57:09;1.33;;;1.07;;
7076;SDS011;3579;48.956;9.154;2023-05-17T06:59:35;1.23;;;1.00;;
7076;SDS011;3579;48.956;9.154;2023-05-17T07:02:01;1.23;;;1.00;;
7076;SDS011;3579;48.956;9.154;2023-05-17T07:04:27;0.90;;;0.90;;
7076;SDS011;3579;48.956;9.154;2023-05-17T07:06:53;1.00;;;0.90;;
7076;SDS011;3579;48.956;9.154;2023-05-17T07:09:20;1.00;;;0.90;;
7076;SDS011;3579;48.956;9.154;2023-05-17T07:11:46;1.10;;;1.00;;
7076;SDS011;3579;48.956;9.154;2023-05-17T07:14:12;0.90;;;0.90;;
7076;SDS011;3579;48.956;9.154;2023-05-17T07:16:39;1.43;;;1.03;;
7076;SDS011;3579;48.956;9.154;2023-05-17T07:19:06;0.90;;;0.90;;
7076;SDS011;3579;48.956;9.154;2023-05-17T07:21:33;1.10;;;1.00;;
7076;SDS011;3579;48.956;9.154;2023-05-17T07:24:00;1.10;;;1.00;;
7076;SDS011;3579;48.956;9.154;2023-05-17T07:26:26;1.10;;;1.00;;
7076;SDS011;3579;48.956;9.154;2023-05-17T07:28:52;1.83;;;1.20;;
7076;SDS011;3579;48.956;9.154;2023-05-17T07:31:18;1.10;;;1.00;;
7076;SDS011;3579;48.956;9.154;2023-05-17T07:33:44;1.20;;;1.10;;
7076;SDS011;3579;48.956;9.154;2023-05-17T07:36:10;1.10;;;1.00;;
7076;SDS011;3579;48.956;9.154;2023-05-17T07:38:36;0.90;;;0.90;;
7076;SDS011;3579;48.956;9.154;2023-05-17T07:41:02;1.10;;;1.00;;
7076;SDS011;3579;48.956;9.154;2023-05-17T07:43:29;1.10;;;1.00;;
7076;SDS011;3579;48.956;9.154;2023-05-17T07:45:55;1.10;;;1.00;;
7076;SDS011;3579;48.956;9.154;2023-05-17T07:48:21;1.30;;;1.00;;
7076;SDS011;3579;48.956;9.154;2023-05-17T07:50:47;1.40;;;1.10;;
7076;SDS011;3579;48.956;9.154;2023-05-17T07:53:14;1.13;;;1.03;;
7076;SDS011;3579;48.956;9.154;2023-05-17T07:55:40;1.40;;;1.10;;
7076;SDS011;3579;48.956;9.154;2023-05-17T07:58:08;2.13;;;1.10;;
7076;SDS011;3579;48.956;9.154;2023-05-17T08:00:36;1.20;;;1.10;;
7076;SDS011;3579;48.956;9.154;2023-05-17T08:03:02;1.30;;;0.97;;
7076;SDS011;3579;48.956;9.154;2023-05-17T08:05:29;1.10;;;0.97;;
7076;SDS011;3579;48.956;9.154;2023-05-17T08:07:55;1.77;;;1.17;;
7076;SDS011;3579;48.956;9.154;2023-05-17T08:10:25;1.87;;;1.20;;
7076;SDS011;3579;48.956;9.154;2023-05-17T08:12:52;1.10;;;1.00;;
7076;SDS011;3579;48.956;9.154;2023-05-17T08:15:18;1.10;;;1.00;;
7076;SDS011;3579;48.956;9.154;2023-05-17T08:17:44;1.53;;;1.10;;
7076;SDS011;3579;48.956;9.154;2023-05-17T08:20:11;1.60;;;1.10;;
7076;SDS011;3579;48.956;9.154;2023-05-17T08:22:37;1.93;;;1.37;;
7076;SDS011;3579;48.956;9.154;2023-05-17T08:25:03;1.33;;;1.03;;
7076;SDS011;3579;48.956;9.154;2023-05-17T08:27:29;1.47;;;1.13;;
7076;SDS011;3579;48.956;9.154;2023-05-17T08:29:56;1.40;;;1.20;;
7076;SDS011;3579;48.956;9.154;2023-05-17T08:32:23;2.03;;;1.30;;
7076;SDS011;3579;48.956;9.154;2023-05-17T08:34:50;2.90;;;1.30;;
7076;SDS011;3579;48.956;9.154;2023-05-17T08:37:16;3.03;;;1.50;;
7076;SDS011;3579;48.956;9.154;2023-05-17T08:39:43;1.90;;;1.27;;
7076;SDS011;3579;48.956;9.154;2023-05-17T08:42:09;1.73;;;1.47;;
7076;SDS011;3579;48.956;9.154;2023-05-17T08:44:35;2.90;;;1.33;;
7076;SDS011;3579;48.956;9.154;2023-05-17T08:47:03;2.40;;;1.20;;
7076;SDS011;3579;48.956;9.154;2023-05-17T08:49:30;1.60;;;1.30;;
7076;SDS011;3579;48.956;9.154;2023-05-17T08:51:59;2.07;;;1.40;;
7076;SDS011;3579;48.956;9.154;2023-05-17T08:54:27;1.67;;;1.30;;
7076;SDS011;3579;48.956;9.154;2023-05-17T08:56:53;2.67;;;1.50;;
7076;SDS011;3579;48.956;9.154;2023-05-17T08:59:23;2.07;;;1.30;;
7076;SDS011;3579;48.956;9.154;2023-05-17T09:01:52;2.20;;;1.37;;
7076;SDS011;3579;48.956;9.154;2023-05-17T09:04:20;1.70;;;1.30;;
7076;SDS011;3579;48.956;9.154;2023-05-17T09:06:48;1.40;;;1.30;;
7076;SDS011;3579;48.956;9.154;2023-05-17T09:09:14;1.77;;;1.37;;
7076;SDS011;3579;48.956;9.154;2023-05-17T09:11:43;2.50;;;1.43;;
7076;SDS011;3579;48.956;9.154;2023-05-17T09:14:09;1.73;;;1.20;;
7076;SDS011;3579;48.956;9.154;2023-05-17T09:16:36;1.53;;;1.37;;
7076;SDS011;3579;48.956;9.154;2023-05-17T09:19:05;2.00;;;1.20;;
7076;SDS011;3579;48.956;9.154;2023-05-17T09:21:32;2.20;;;1.60;;
7076;SDS011;3579;48.956;9.154;2023-05-17T09:23:59;1.50;;;1.23;;
7076;SDS011;3579;48.956;9.154;2023-05-17T09:26:42;1.60;;;1.30;;
7076;SDS011;3579;48.956;9.154;2023-05-17T09:31:36;1.70;;;1.20;;
7076;SDS011;3579;48.956;9.154;2023-05-17T09:34:02;2.03;;;1.33;;
7076;SDS011;3579;48.956;9.154;2023-05-17T09:36:29;1.73;;;1.40;;
7076;SDS011;3579;48.956;9.154;2023-05-17T09:39:00;1.63;;;1.40;;
7076;SDS011;3579;48.956;9.154;2023-05-17T09:41:30;1.70;;;1.40;;
7076;SDS011;3579;48.956;9.154;2023-05-17T09:44:00;1.83;;;1.30;;
7076;SDS011;3579;48.956;9.154;2023-05-17T09:46:31;2.50;;;1.50;;
7076;SDS011;3579;48.956;9.154;2023-05-17T09:49:02;2.40;;;1.40;;
7076;SDS011;3579;48.956;9.154;2023-05-17T09:54:01;2.47;;;1.50;;
7076;SDS011;3579;48.956;9.154;2023-05-17T09:56:28;2.67;;;1.57;;
7076;SDS011;3579;48.956;9.154;2023-05-17T09:58:55;1.60;;;1.50;;
7076;SDS011;3579;48.956;9.154;2023-05-17T10:01:23;2.07;;;1.30;;
7076;SDS011;3579;48.956;9.154;2023-05-17T10:03:54;3.03;;;1.40;;
7076;SDS011;3579;48.956;9.154;2023-05-17T10:06:24;2.00;;;1.40;;
7076;SDS011;3579;48.956;9.154;2023-05-17T10:08:54;1.70;;;1.50;;
7076;SDS011;3579;48.956;9.154;2023-05-17T10:11:23;1.57;;;1.30;;
7076;SDS011;3579;48.956;9.154;2023-05-17T10:16:56;3.80;;;1.50;;
7076;SDS011;3579;48.956;9.154;2023-05-17T10:19:23;1.53;;;1.30;;
7076;SDS011;3579;48.956;9.154;2023-05-17T10:21:51;2.27;;;1.30;;
7076;SDS011;3579;48.956;9.154;2023-05-17T10:24:18;1.53;;;1.43;;
7076;SDS011;3579;48.956;9.154;2023-05-17T10:26:46;2.80;;;1.47;;
7076;SDS011;3579;48.956;9.154;2023-05-17T10:29:17;1.87;;;1.60;;
7076;SDS011;3579;48.956;9.154;2023-05-17T10:31:45;1.97;;;1.60;;
7076;SDS011;3579;48.956;9.154;2023-05-17T10:34:11;1.70;;;1.30;;
7076;SDS011;3579;48.956;9.154;2023-05-17T10:36:42;1.93;;;1.60;;
7076;SDS011;3579;48.956;9.154;2023-05-17T10:39:08;2.40;;;1.57;;
7076;SDS011;3579;48.956;9.154;2023-05-17T10:41:35;1.93;;;1.53;;
7076;SDS011;3579;48.956;9.154;2023-05-17T10:44:05;2.30;;;1.57;;
7076;SDS011;3579;48.956;9.154;2023-05-17T10:46:33;1.50;;;1.40;;
7076;SDS011;3579;48.956;9.154;2023-05-17T10:49:00;2.50;;;1.50;;
7076;SDS011;3579;48.956;9.154;2023-05-17T10:51:31;1.60;;;1.47;;
7076;SDS011;3579;48.956;9.154;2023-05-17T10:54:12;2.10;;;1.50;;
7076;SDS011;3579;48.956;9.154;2023-05-17T10:56:49;2.00;;;1.53;;
7076;SDS011;3579;48.956;9.154;2023-05-17T10:59:17;1.90;;;1.43;;
7076;SDS011;3579;48.956;9.154;2023-05-17T11:02:04;1.70;;;1.40;;
7076;SDS011;3579;48.956;9.154;2023-05-17T11:09:43;2.30;;;1.50;;
7076;SDS011;3579;48.956;9.154;2023-05-17T11:12:12;1.90;;;1.40;;
7076;SDS011;3579;48.956;9.154;2023-05-17T11:14:56;2.03;;;1.60;;
7076;SDS011;3579;48.956;9.154;2023-05-17T11:17:26;1.90;;;1.50;;
7076;SDS011;3579;48.956;9.154;2023-05-17T11:20:02;2.33;;;1.60;;
7076;SDS011;3579;48.956;9.154;2023-05-17T11:22:37;2.17;;;1.67;;
7076;SDS011;3579;48.956;9.154;2023-05-17T11:25:06;1.70;;;1.50;;
7076;SDS011;3579;48.956;9.154;2023-05-17T11:27:47;1.83;;;1.60;;
7076;SDS011;3579;48.956;9.154;2023-05-17T11:30:20;1.50;;;1.40;;
7076;SDS011;3579;48.956;9.154;2023-05-17T11:32:51;2.00;;;1.70;;
7076;SDS011;3579;48.956;9.154;2023-05-17T11:35:22;1.80;;;1.63;;
7076;SDS011;3579;48.956;9.154;2023-05-17T11:37:51;2.37;;;1.60;;
7076;SDS011;3579;48.956;9.154;2023-05-17T11:40:25;2.43;;;1.80;;
7076;SDS011;3579;48.956;9.154;2023-05-17T11:43:11;2.23;;;1.60;;
7076;SDS011;3579;48.956;9.154;2023-05-17T11:48:10;3.50;;;1.87;;
7076;SDS011;3579;48.956;9.154;2023-05-17T11:50:37;1.90;;;1.57;;
7076;SDS011;3579;48.956;9.154;2023-05-17T11:53:07;2.00;;;1.70;;
7076;SDS011;3579;48.956;9.154;2023-05-17T11:55:44;2.00;;;1.70;;
7076;SDS011;3579;48.956;9.154;2023-05-17T11:58:15;2.57;;;1.80;;
7076;SDS011;3579;48.956;9.154;2023-05-17T12:00:43;2.00;;;1.60;;
7076;SDS011;3579;48.956;9.154;2023-05-17T12:05:43;2.03;;;1.60;;
7076;SDS011;3579;48.956;9.154;2023-05-17T12:08:10;2.30;;;1.70;;
7076;SDS011;3579;48.956;9.154;2023-05-17T12:10:36;2.17;;;1.73;;
7076;SDS011;3579;48.956;9.154;2023-05-17T12:13:08;1.90;;;1.70;;
7076;SDS011;3579;48.956;9.154;2023-05-17T12:15:34;2.50;;;1.90;;
7076;SDS011;3579;48.956;9.154;2023-05-17T12:18:00;2.40;;;1.80;;
7076;SDS011;3579;48.956;9.154;2023-05-17T12:20:26;1.60;;;1.50;;
7076;SDS011;3579;48.956;9.154;2023-05-17T12:22:54;2.10;;;1.70;;
7076;SDS011;3579;48.956;9.154;2023-05-17T12:25:22;2.70;;;1.80;;
7076;SDS011;3579;48.956;9.154;2023-05-17T12:28:14;3.73;;;1.67;;
7076;SDS011;3579;48.956;9.154;2023-05-17T12:30:50;2.87;;;1.70;;
7076;SDS011;3579;48.956;9.154;2023-05-17T12:33:18;2.60;;;1.67;;
7076;SDS011;3579;48.956;9.154;2023-05-17T12:35:44;2.20;;;1.80;;
7076;SDS011;3579;48.956;9.154;2023-05-17T12:38:11;2.93;;;1.50;;
7076;SDS011;3579;48.956;9.154;2023-05-17T12:40:39;2.10;;;1.90;;
7076;SDS011;3579;48.956;9.154;2023-05-17T12:43:05;2.90;;;1.77;;
7076;SDS011;3579;48.956;9.154;2023-05-17T12:45:33;2.37;;;1.80;;
7076;SDS011;3579;48.956;9.154;2023-05-17T12:48:00;2.30;;;2.00;;
7076;SDS011;3579;48.956;9.154;2023-05-17T12:50:29;2.20;;;1.70;;
7076;SDS011;3579;48.956;9.154;2023-05-17T12:52:56;2.07;;;1.77;;
7076;SDS011;3579;48.956;9.154;2023-05-17T12:55:22;2.00;;;1.80;;
7076;SDS011;3579;48.956;9.154;2023-05-17T12:57:52;2.70;;;1.80;;
7076;SDS011;3579;48.956;9.154;2023-05-17T13:00:19;2.57;;;1.73;;
7076;SDS011;3579;48.956;9.154;2023-05-17T13:02:46;2.20;;;1.80;;
7076;SDS011;3579;48.956;9.154;2023-05-17T13:05:16;2.50;;;2.17;;
7076;SDS011;3579;48.956;9.154;2023-05-17T13:07:48;3.00;;;1.60;;
7076;SDS011;3579;48.956;9.154;2023-05-17T13:10:24;2.27;;;1.80;;
7076;SDS011;3579;48.956;9.154;2023-05-17T13:12:55;1.87;;;1.70;;
7076;SDS011;3579;48.956;9.154;2023-05-17T13:15:26;2.33;;;1.77;;
7076;SDS011;3579;48.956;9.154;2023-05-17T13:17:56;2.47;;;1.93;;
7076;SDS011;3579;48.956;9.154;2023-05-17T13:20:25;2.47;;;1.83;;
7076;SDS011;3579;48.956;9.154;2023-05-17T13:22:51;2.90;;;1.83;;
7076;SDS011;3579;48.956;9.154;2023-05-17T13:25:18;2.23;;;1.70;;
7076;SDS011;3579;48.956;9.154;2023-05-17T13:27:44;2.40;;;1.70;;
7076;SDS011;3579;48.956;9.154;2023-05-17T13:30:16;2.50;;;1.80;;
7076;SDS011;3579;48.956;9.154;2023-05-17T13:32:42;2.33;;;1.90;;
7076;SDS011;3579;48.956;9.154;2023-05-17T13:35:08;2.97;;;2.10;;
7076;SDS011;3579;48.956;9.154;2023-05-17T13:37:35;1.90;;;1.70;;
7076;SDS011;3579;48.956;9.154;2023-05-17T13:40:01;2.17;;;1.90;;
7076;SDS011;3579;48.956;9.154;2023-05-17T13:42:28;2.27;;;1.77;;
7076;SDS011;3579;48.956;9.154;2023-05-17T13:44:54;2.47;;;1.70;;
7076;SDS011;3579;48.956;9.154;2023-05-17T13:47:20;2.30;;;1.90;;
7076;SDS011;3579;48.956;9.154;2023-05-17T13:49:47;2.07;;;1.80;;
7076;SDS011;3579;48.956;9.154;2023-05-17T13:52:13;2.23;;;1.70;;
7076;SDS011;3579;48.956;9.154;2023-05-17T13:54:39;2.47;;;1.70;;
7076;SDS011;3579;48.956;9.154;2023-05-17T13:57:05;2.77;;;2.00;;
7076;SDS011;3579;48.956;9.154;2023-05-17T13:59:32;2.53;;;1.90;;
7076;SDS011;3579;48.956;9.154;2023-05-17T14:01:58;2.53;;;2.10;;
7076;SDS011;3579;48.956;9.154;2023-05-17T14:04:24;2.30;;;2.00;;
7076;SDS011;3579;48.956;9.154;2023-05-17T14:06:50;2.87;;;1.80;;
7076;SDS011;3579;48.956;9.154;2023-05-17T14:09:17;2.33;;;1.80;;
7076;SDS011;3579;48.956;9.154;2023-05-17T14:11:43;2.10;;;1.80;;
7076;SDS011;3579;48.956;9.154;2023-05-17T14:14:09;2.13;;;1.77;;
7076;SDS011;3579;48.956;9.154;2023-05-17T14:16:35;2.00;;;1.80;;
7076;SDS011;3579;48.956;9.154;2023-05-17T14:19:02;2.17;;;1.83;;
7076;SDS011;3579;48.956;9.154;2023-05-17T14:21:28;1.90;;;1.70;;
7076;SDS011;3579;48.956;9.154;2023-05-17T14:23:54;2.47;;;2.00;;
7076;SDS011;3579;48.956;9.154;2023-05-17T14:26:20;2.27;;;1.73;;
7076;SDS011;3579;48.956;9.154;2023-05-17T14:28:47;2.17;;;1.80;;
7076;SDS011;3579;48.956;9.154;2023-05-17T14:31:13;2.67;;;2.13;;
7076;SDS011;3579;48.956;9.154;2023-05-17T14:33:39;2.83;;;1.90;;
7076;SDS011;3579;48.956;9.154;2023-05-17T14:36:05;2.97;;;2.10;;
7076;SDS011;3579;48.956;9.154;2023-05-17T14:38:31;1.93;;;1.77;;
7076;SDS011;3579;48.956;9.154;2023-05-17T14:40:57;2.20;;;1.67;;
7076;SDS011;3579;48.956;9.154;2023-05-17T14:43:27;2.10;;;1.90;;
7076;SDS011;3579;48.956;9.154;2023-05-17T14:45:53;2.63;;;1.90;;
7076;SDS011;3579;48.956;9.154;2023-05-17T14:48:19;2.17;;;1.87;;
7076;SDS011;3579;48.956;9.154;2023-05-17T14:50:45;2.40;;;2.13;;
7076;SDS011;3579;48.956;9.154;2023-05-17T14:53:11;2.53;;;1.97;;
7076;SDS011;3579;48.956;9.154;2023-05-17T14:55:37;1.93;;;1.70;;
7076;SDS011;3579;48.956;9.154;2023-05-17T14:58:03;2.53;;;1.90;;
7076;SDS011;3579;48.956;9.154;2023-05-17T15:00:29;2.37;;;2.00;;
7076;SDS011;3579;48.956;9.154;2023-05-17T15:02:55;2.37;;;2.03;;
7076;SDS011;3579;48.956;9.154;2023-05-17T15:05:22;3.07;;;1.90;;
7076;SDS011;3579;48.956;9.154;2023-05-17T15:07:48;2.00;;;1.80;;
7076;SDS011;3579;48.956;9.154;2023-05-17T15:10:14;2.20;;;1.90;;
7076;SDS011;3579;48.956;9.154;2023-05-17T15:12:41;3.83;;;1.80;;
7076;SDS011;3579;48.956;9.154;2023-05-17T15:15:07;1.90;;;1.63;;
7076;SDS011;3579;48.956;9.154;2023-05-17T15:17:34;1.90;;;1.70;;
7076;SDS011;3579;48.956;9.154;2023-05-17T15:20:00;2.00;;;1.80;;
7076;SDS011;3579;48.956;9.154;2023-05-17T15:22:26;2.43;;;1.97;;
7076;SDS011;3579;48.956;9.154;2023-05-17T15:24:53;2.10;;;1.70;;
7076;SDS011;3579;48.956;9.154;2023-05-17T15:27:19;3.03;;;1.97;;
7076;SDS011;3579;48.956;9.154;2023-05-17T15:29:45;3.07;;;1.90;;
7076;SDS011;3579;48.956;9.154;2023-05-17T15:32:11;2.40;;;1.80;;
7076;SDS011;3579;48.956;9.154;2023-05-17T15:34:37;3.10;;;2.30;;
7076;SDS011;3579;48.956;9.154;2023-05-17T15:37:03;2.00;;;1.80;;
7076;SDS011;3579;48.956;9.154;2023-05-17T15:39:30;2.73;;;1.97;;